createdAt,value
2023-02-28T00:00:50.885Z,-6.78
2023-02-28T00:01:51.066Z,-6.81
2023-02-28T00:02:50.922Z,-6.94
2023-02-28T00:03:50.878Z,-6.88
2023-02-28T00:04:50.890Z,-6.87
2023-02-28T00:05:50.784Z,-6.99
2023-02-28T00:06:50.746Z,-6.97
2023-02-28T00:07:50.460Z,-6.97
2023-02-28T00:08:50.314Z,-7.06
2023-02-28T00:09:50.421Z,-7.02
2023-02-28T00:10:50.649Z,-6.95
2023-02-28T00:11:50.610Z,-7.02
2023-02-28T00:12:50.394Z,-6.98
2023-02-28T00:13:50.347Z,-6.95
2023-02-28T00:14:50.805Z,-7.01
2023-02-28T00:15:50.021Z,-6.91
2023-02-28T00:16:50.865Z,-6.97
2023-02-28T00:17:50.493Z,-6.92
2023-02-28T00:18:50.567Z,-6.92
2023-02-28T00:19:50.201Z,-6.88
2023-02-28T00:20:50.171Z,-6.89
2023-02-28T00:21:50.154Z,-6.94
2023-02-28T00:22:50.396Z,-7.01
2023-02-28T00:23:50.406Z,-6.97
2023-02-28T00:24:49.819Z,-6.95
2023-02-28T00:25:50.460Z,-7.06
2023-02-28T00:26:50.288Z,-7.02
2023-02-28T00:27:50.263Z,-6.97
2023-02-28T00:28:50.240Z,-6.99
2023-02-28T00:29:50.216Z,-6.95
2023-02-28T00:30:50.092Z,-6.95
2023-02-28T00:31:50.078Z,-6.98
2023-02-28T00:32:50.150Z,-7.01
2023-02-28T00:33:50.150Z,-6.98
2023-02-28T00:34:50.179Z,-6.94
2023-02-28T00:35:50.007Z,-6.95
2023-02-28T00:36:50.047Z,-7.01
2023-02-28T00:37:49.792Z,-6.92
2023-02-28T00:38:50.016Z,-6.97
2023-02-28T00:39:50.026Z,-6.95
2023-02-28T00:40:49.985Z,-6.99
2023-02-28T00:41:49.958Z,-6.99
2023-02-28T00:42:49.653Z,-6.95
2023-02-28T00:43:49.398Z,-6.94
2023-02-28T00:44:49.617Z,-7.09
2023-02-28T00:45:49.771Z,-7.06
2023-02-28T00:46:49.326Z,-7.02
2023-02-28T00:47:49.870Z,-6.94
2023-02-28T00:48:49.776Z,-6.92
2023-02-28T00:49:49.759Z,-7.02
2023-02-28T00:50:49.810Z,-6.91
2023-02-28T00:51:49.721Z,-6.84
2023-02-28T00:52:49.457Z,-6.88
2023-02-28T00:53:49.677Z,-6.83
2023-02-28T00:54:49.399Z,-6.76
2023-02-28T00:55:49.619Z,-6.71
2023-02-28T00:56:49.357Z,-6.65
2023-02-28T00:57:49.585Z,-6.51
2023-02-28T00:58:49.292Z,-6.63
2023-02-28T00:59:49.378Z,-6.51
2023-02-28T01:00:49.515Z,-6.38
2023-02-28T01:01:49.754Z,-6.4
2023-02-28T01:02:49.488Z,-6.36
2023-02-28T01:03:49.437Z,-6.2
2023-02-28T01:04:49.594Z,-6.31
2023-02-28T01:05:49.160Z,-6.46
2023-02-28T01:06:49.440Z,-6.28
2023-02-28T01:07:48.838Z,-6.33
2023-02-28T01:08:48.809Z,-6.3
2023-02-28T01:09:49.045Z,-6.28
2023-02-28T01:10:49.273Z,-6.28
2023-02-28T01:11:49.255Z,-6.22
2023-02-28T01:12:48.971Z,-6.2
2023-02-28T01:13:48.685Z,-6.2
2023-02-28T01:14:48.937Z,-6.15
2023-02-28T01:15:49.370Z,-6.19
2023-02-28T01:16:48.907Z,-6.1
2023-02-28T01:17:49.123Z,-6.07
2023-02-28T01:18:49.086Z,-6.02
2023-02-28T01:19:48.812Z,-5.97
2023-02-28T01:20:48.562Z,-5.97
2023-02-28T01:21:48.768Z,-5.91
2023-02-28T01:22:49.080Z,-5.8
2023-02-28T01:23:48.971Z,-5.77
2023-02-28T01:24:50.740Z,-5.7
2023-02-28T01:25:48.844Z,-5.69
2023-02-28T01:26:48.655Z,-5.68
2023-02-28T01:27:48.893Z,-5.73
2023-02-28T01:28:48.614Z,-5.6
2023-02-28T01:29:48.590Z,-5.55
2023-02-28T01:30:48.708Z,-5.47
2023-02-28T01:31:48.824Z,-5.51
2023-02-28T01:32:48.522Z,-5.5
2023-02-28T01:34:48.781Z,-5.44
2023-02-28T01:35:48.909Z,-5.55
2023-02-28T01:36:48.429Z,-5.45
2023-02-28T01:37:48.678Z,-5.47
2023-02-28T01:38:48.719Z,-5.55
2023-02-28T01:39:48.626Z,-5.47
2023-02-28T01:40:48.604Z,-5.58
2023-02-28T01:41:48.313Z,-5.65
2023-02-28T01:42:48.296Z,-5.73
2023-02-28T01:43:48.267Z,-5.8
2023-02-28T01:44:47.985Z,-5.79
2023-02-28T01:45:48.478Z,-5.92
2023-02-28T01:46:48.287Z,-5.99
2023-02-28T01:47:48.188Z,-6.02
2023-02-28T01:48:48.155Z,-6.04
2023-02-28T01:49:48.138Z,-6.12
2023-02-28T01:50:48.109Z,-6.19
2023-02-28T01:51:48.344Z,-6.23
2023-02-28T01:52:48.109Z,-6.34
2023-02-28T01:53:48.053Z,-6.4
2023-02-28T01:54:48.548Z,-6.37
2023-02-28T01:55:48.426Z,-6.36
2023-02-28T01:56:48.147Z,-6.41
2023-02-28T01:57:48.380Z,-6.44
2023-02-28T01:58:48.449Z,-6.51
2023-02-28T01:59:48.083Z,-6.59
2023-02-28T02:00:48.101Z,-6.63
2023-02-28T02:01:48.377Z,-6.68
2023-02-28T02:02:48.470Z,-6.65
2023-02-28T02:03:48.020Z,-6.71
2023-02-28T02:04:47.708Z,-6.81
2023-02-28T02:05:48.198Z,-6.77
2023-02-28T02:06:48.199Z,-6.76
2023-02-28T02:07:47.907Z,-6.84
2023-02-28T02:08:47.870Z,-6.88
2023-02-28T02:09:47.600Z,-6.89
2023-02-28T02:10:48.273Z,-6.89
2023-02-28T02:11:48.097Z,-6.92
2023-02-28T02:12:48.529Z,-6.97
2023-02-28T02:13:49.036Z,-6.98
2023-02-28T02:14:48.985Z,-6.99
2023-02-28T02:15:49.061Z,-7.09
2023-02-28T02:16:48.439Z,-7.05
2023-02-28T02:17:48.704Z,-7.12
2023-02-28T02:18:48.693Z,-7.1
2023-02-28T02:19:48.616Z,-7.09
2023-02-28T02:20:48.599Z,-7.06
2023-02-28T02:21:48.852Z,-7.12
2023-02-28T02:22:48.822Z,-7.05
2023-02-28T02:23:48.774Z,-7.15
2023-02-28T02:24:48.754Z,-7.1
2023-02-28T02:25:48.773Z,-7.1
2023-02-28T02:26:48.801Z,-6.99
2023-02-28T02:27:48.435Z,-6.94
2023-02-28T02:28:48.150Z,-6.98
2023-02-28T02:29:48.391Z,-6.88
2023-02-28T02:30:48.367Z,-6.91
2023-02-28T02:31:48.993Z,-6.94
2023-02-28T02:32:48.596Z,-6.8
2023-02-28T02:33:48.305Z,-6.87
2023-02-28T02:34:48.541Z,-6.77
2023-02-28T02:35:48.590Z,-6.77
2023-02-28T02:36:48.242Z,-6.73
2023-02-28T02:37:48.200Z,-6.7
2023-02-28T02:38:48.436Z,-6.67
2023-02-28T02:39:48.414Z,-6.68
2023-02-28T02:40:48.385Z,-6.63
2023-02-28T02:41:48.114Z,-6.58
2023-02-28T02:42:48.458Z,-6.62
2023-02-28T02:43:48.077Z,-6.48
2023-02-28T02:44:48.045Z,-6.43
2023-02-28T02:45:48.139Z,-6.4
2023-02-28T02:46:48.269Z,-6.37
2023-02-28T02:47:48.243Z,-6.33
2023-02-28T02:48:47.954Z,-6.43
2023-02-28T02:49:48.177Z,-6.2
2023-02-28T02:50:48.164Z,-6.3
2023-02-28T02:51:47.886Z,-6.28
2023-02-28T02:52:48.143Z,-6.19
2023-02-28T02:53:47.826Z,-6.1
2023-02-28T02:54:47.811Z,-6.16
2023-02-28T02:55:47.532Z,-6.12
2023-02-28T02:56:48.051Z,-6.1
2023-02-28T02:57:47.779Z,-6.12
2023-02-28T02:58:48.206Z,-6.02
2023-02-28T02:59:47.960Z,-6.01
2023-02-28T03:00:48.145Z,-6.01
2023-02-28T03:01:47.645Z,-6.04
2023-02-28T03:02:47.628Z,-6.04
2023-02-28T03:03:48.060Z,-5.94
2023-02-28T03:04:47.858Z,-6.02
2023-02-28T03:05:47.567Z,-6.02
2023-02-28T03:06:47.807Z,-6.04
2023-02-28T03:07:47.509Z,-6.01
2023-02-28T03:08:47.759Z,-6.01
2023-02-28T03:09:47.728Z,-6.01
2023-02-28T03:10:47.715Z,-5.95
2023-02-28T03:11:47.677Z,-5.99
2023-02-28T03:12:47.439Z,-6.01
2023-02-28T03:13:47.641Z,-6.04
2023-02-28T03:14:47.716Z,-6.02
2023-02-28T03:15:47.336Z,-6.12
2023-02-28T03:16:47.588Z,-6.13
2023-02-28T03:17:47.539Z,-6.07
2023-02-28T03:18:47.269Z,-6.16
2023-02-28T03:19:47.244Z,-6.18
2023-02-28T03:20:47.489Z,-6.2
2023-02-28T03:21:47.201Z,-6.19
2023-02-28T03:22:47.431Z,-6.3
2023-02-28T03:23:46.899Z,-6.28
2023-02-28T03:24:47.406Z,-6.34
2023-02-28T03:25:47.127Z,-6.34
2023-02-28T03:26:47.084Z,-6.33
2023-02-28T03:27:47.073Z,-6.4
2023-02-28T03:28:47.296Z,-6.46
2023-02-28T03:29:47.051Z,-6.58
2023-02-28T03:30:47.347Z,-6.55
2023-02-28T03:31:47.563Z,-6.67
2023-02-28T03:32:47.209Z,-6.71
2023-02-28T03:49:37.100Z,-7.4
2023-02-28T03:50:36.730Z,-7.45
2023-02-28T03:51:36.962Z,-7.56
2023-02-28T03:52:36.418Z,-7.58
2023-02-28T03:53:36.934Z,-7.7
2023-02-28T03:54:36.646Z,-7.55
2023-02-28T03:55:36.354Z,-7.69
2023-02-28T03:56:36.588Z,-7.7
2023-02-28T03:57:36.841Z,-7.83
2023-02-28T03:58:36.804Z,-7.76
2023-02-28T03:59:36.521Z,-7.83
2023-02-28T04:00:36.483Z,-7.81
2023-02-28T04:01:37.416Z,-7.9
2023-02-28T04:02:36.450Z,-7.88
2023-02-28T04:03:36.669Z,-7.91
2023-02-28T04:04:36.873Z,-7.93
2023-02-28T04:05:36.701Z,-7.99
2023-02-28T04:06:36.619Z,-8.06
2023-02-28T04:07:36.601Z,-8.06
2023-02-28T04:08:36.303Z,-8.02
2023-02-28T04:09:36.280Z,-8.05
2023-02-28T04:10:36.278Z,-8.05
2023-02-28T04:11:36.402Z,-8.09
2023-02-28T04:12:36.195Z,-8.03
2023-02-28T04:13:36.435Z,-8.09
2023-02-28T04:14:36.157Z,-8.09
2023-02-28T04:15:35.967Z,-7.98
2023-02-28T04:16:40.502Z,-8.1
2023-02-28T04:17:36.122Z,-8.09
2023-02-28T04:18:36.334Z,-8.12
2023-02-28T04:19:36.288Z,-8.15
2023-02-28T04:20:36.011Z,-8.2
2023-02-28T04:21:36.955Z,-8.2
2023-02-28T04:22:35.975Z,-8.21
2023-02-28T04:23:36.217Z,-8.2
2023-02-28T04:24:35.928Z,-8.24
2023-02-28T04:25:36.159Z,-8.24
2023-02-28T04:26:36.487Z,-8.34
2023-02-28T04:27:37.415Z,-8.31
2023-02-28T04:28:36.055Z,-8.33
2023-02-28T04:29:36.347Z,-8.28
2023-02-28T04:30:36.527Z,-8.27
2023-02-28T04:31:36.526Z,-8.28
2023-02-28T04:32:36.237Z,-8.31
2023-02-28T04:33:36.195Z,-8.21
2023-02-28T04:34:36.199Z,-8.16
2023-02-28T04:35:36.393Z,-8.09
2023-02-28T04:36:36.386Z,-8.03
2023-02-28T04:37:36.438Z,-7.94
2023-02-28T04:38:36.330Z,-7.83
2023-02-28T04:39:36.316Z,-7.76
2023-02-28T04:40:36.298Z,-7.66
2023-02-28T04:41:37.863Z,-7.54
2023-02-28T04:42:35.981Z,-7.55
2023-02-28T04:43:35.971Z,-7.42
2023-02-28T04:44:36.222Z,-7.38
2023-02-28T04:45:36.179Z,-7.27
2023-02-28T04:46:35.903Z,-7.33
2023-02-28T04:47:36.141Z,-7.12
2023-02-28T04:48:35.850Z,-6.99
2023-02-28T04:49:36.094Z,-6.97
2023-02-28T04:50:36.046Z,-6.91
2023-02-28T04:51:36.436Z,-6.91
2023-02-28T04:52:36.008Z,-6.8
2023-02-28T04:53:36.074Z,-6.76
2023-02-28T04:54:35.761Z,-6.77
2023-02-28T04:55:35.675Z,-6.73
2023-02-28T04:56:35.936Z,-6.73
2023-02-28T04:57:35.910Z,-6.71
2023-02-28T04:58:35.861Z,-6.63
2023-02-28T04:59:35.845Z,-6.54
2023-02-28T05:00:35.815Z,-6.55
2023-02-28T05:01:36.643Z,-6.46
2023-02-28T05:02:36.064Z,-6.37
2023-02-28T05:03:36.131Z,-6.4
2023-02-28T05:04:35.982Z,-6.36
2023-02-28T05:05:36.084Z,-6.4
2023-02-28T05:06:36.055Z,-6.31
2023-02-28T05:07:35.779Z,-6.25
2023-02-28T05:08:35.762Z,-6.19
2023-02-28T05:09:36.058Z,-6.25
2023-02-28T05:10:35.970Z,-6.07
2023-02-28T05:11:36.521Z,-6.12
2023-02-28T05:12:35.920Z,-6.08
2023-02-28T05:13:35.895Z,-6.01
2023-02-28T05:14:35.879Z,-5.94
2023-02-28T05:15:37.864Z,-6.04
2023-02-28T05:16:35.872Z,-5.91
2023-02-28T05:17:35.551Z,-5.91
2023-02-28T05:18:35.618Z,-5.86
2023-02-28T05:19:35.514Z,-5.86
2023-02-28T05:20:35.760Z,-5.81
2023-02-28T05:21:36.407Z,-5.8
2023-02-28T05:22:35.748Z,-5.76
2023-02-28T05:23:35.694Z,-5.73
2023-02-28T05:24:35.401Z,-5.7
2023-02-28T05:25:35.709Z,-5.65
2023-02-28T05:26:35.082Z,-5.66
2023-02-28T05:27:35.583Z,-5.6
2023-02-28T05:28:35.576Z,-5.56
2023-02-28T05:29:35.535Z,-5.55
2023-02-28T05:30:35.251Z,-5.48
2023-02-28T05:31:36.384Z,-5.42
2023-02-28T05:32:35.402Z,-5.44
2023-02-28T05:33:34.932Z,-5.48
2023-02-28T05:34:35.182Z,-5.38
2023-02-28T05:35:35.445Z,-5.33
2023-02-28T05:36:35.385Z,-5.37
2023-02-28T05:37:35.345Z,-5.37
2023-02-28T05:38:36.845Z,-5.27
2023-02-28T05:39:35.315Z,-5.29
2023-02-28T05:40:35.024Z,-5.24
2023-02-28T05:41:35.861Z,-5.31
2023-02-28T05:42:34.987Z,-5.23
2023-02-28T05:43:35.213Z,-5.2
2023-02-28T05:44:35.207Z,-5.23
2023-02-28T05:45:35.033Z,-5.17
2023-02-28T05:46:34.889Z,-5.22
2023-02-28T05:47:34.893Z,-5.26
2023-02-28T05:48:35.378Z,-5.22
2023-02-28T05:49:35.095Z,-5.24
2023-02-28T05:50:35.059Z,-5.3
2023-02-28T05:51:35.539Z,-5.29
2023-02-28T05:52:35.022Z,-5.31
2023-02-28T05:53:34.991Z,-5.37
2023-02-28T05:54:34.970Z,-5.41
2023-02-28T05:55:34.965Z,-5.58
2023-02-28T05:56:34.665Z,-5.59
2023-02-28T05:57:34.985Z,-5.6
2023-02-28T05:58:34.896Z,-5.66
2023-02-28T05:59:34.873Z,-5.73
2023-02-28T06:00:34.840Z,-5.89
2023-02-28T06:01:35.018Z,-5.94
2023-02-28T06:02:34.886Z,-5.89
2023-02-28T06:03:34.899Z,-6.02
2023-02-28T06:04:36.754Z,-6.13
2023-02-28T06:05:34.214Z,-6.04
2023-02-28T06:06:36.818Z,-6.19
2023-02-28T06:07:34.676Z,-6.28
2023-02-28T06:08:34.652Z,-6.28
2023-02-28T06:09:34.696Z,-6.26
2023-02-28T06:10:34.385Z,-6.36
2023-02-28T06:11:35.045Z,-6.34
2023-02-28T06:12:34.330Z,-6.38
2023-02-28T06:13:34.651Z,-6.44
2023-02-28T06:14:34.545Z,-6.46
2023-02-28T06:15:34.528Z,-6.52
2023-02-28T06:16:34.706Z,-6.59
2023-02-28T06:17:34.449Z,-6.55
2023-02-28T06:18:34.490Z,-6.68
2023-02-28T06:19:34.430Z,-6.68
2023-02-28T06:20:34.445Z,-6.71
2023-02-28T06:21:35.365Z,-6.74
2023-02-28T06:22:34.350Z,-6.81
2023-02-28T06:23:34.320Z,-6.8
2023-02-28T06:24:34.295Z,-6.83
2023-02-28T06:25:34.283Z,-6.94
2023-02-28T06:26:34.003Z,-6.89
2023-02-28T06:27:34.017Z,-6.98
2023-02-28T06:28:33.965Z,-6.95
2023-02-28T06:29:34.306Z,-6.84
2023-02-28T06:30:33.925Z,-6.94
2023-02-28T06:31:35.317Z,-6.97
2023-02-28T06:32:34.115Z,-7.01
2023-02-28T06:33:33.844Z,-6.97
2023-02-28T06:34:33.816Z,-6.92
2023-02-28T06:35:33.935Z,-6.95
2023-02-28T06:36:34.054Z,-6.97
2023-02-28T06:37:34.029Z,-7.02
2023-02-28T06:38:34.008Z,-7.01
2023-02-28T06:39:33.694Z,-7.05
2023-02-28T06:40:34.066Z,-7.07
2023-02-28T06:41:55.130Z,-7.06
2023-02-28T06:42:33.370Z,-7.15
2023-02-28T06:43:34.281Z,-7.09
2023-02-28T06:44:34.715Z,-7.01
2023-02-28T06:45:34.779Z,-7.13
2023-02-28T06:46:34.859Z,-7.09
2023-02-28T06:47:34.643Z,-7.06
2023-02-28T06:48:36.561Z,-7.05
2023-02-28T06:49:34.361Z,-7.13
2023-02-28T06:50:34.337Z,-7.12
2023-02-28T06:51:34.743Z,-7.05
2023-02-28T06:52:34.610Z,-7.1
2023-02-28T06:53:34.506Z,-7.05
2023-02-28T06:54:34.525Z,-7.07
2023-02-28T06:55:35.603Z,-7.05
2023-02-28T06:56:34.445Z,-7.09
2023-02-28T06:57:33.956Z,-7.06
2023-02-28T06:58:34.139Z,-7.13
2023-02-28T06:59:34.369Z,-7.06
2023-02-28T07:00:34.160Z,-7.01
2023-02-28T07:01:35.480Z,-6.99
2023-02-28T07:02:34.340Z,-7.01
2023-02-28T07:03:36.796Z,-6.98
2023-02-28T07:04:34.424Z,-6.95
2023-02-28T07:05:33.713Z,-6.91
2023-02-28T07:06:34.225Z,-6.95
2023-02-28T07:07:34.193Z,-6.89
2023-02-28T07:08:33.899Z,-6.84
2023-02-28T07:09:34.133Z,-6.89
2023-02-28T07:10:34.213Z,-6.78
2023-02-28T07:11:34.814Z,-6.84
2023-02-28T07:12:34.118Z,-6.8
2023-02-28T07:13:33.810Z,-6.77
2023-02-28T07:14:34.017Z,-6.81
2023-02-28T07:15:34.009Z,-6.8
2023-02-28T07:16:34.149Z,-6.63
2023-02-28T07:17:34.097Z,-6.7
2023-02-28T07:18:33.938Z,-6.59
2023-02-28T07:19:33.654Z,-6.58
2023-02-28T07:20:33.961Z,-6.6
2023-02-28T07:21:34.684Z,-6.58
2023-02-28T07:22:33.585Z,-6.54
2023-02-28T07:23:33.826Z,-6.4
2023-02-28T07:24:33.798Z,-6.38
2023-02-28T07:25:33.516Z,-6.34
2023-02-28T07:26:33.383Z,-6.33
2023-02-28T07:27:33.733Z,-6.34
2023-02-28T07:28:33.207Z,-6.25
2023-02-28T07:29:33.458Z,-6.28
2023-02-28T07:30:33.411Z,-6.07
2023-02-28T07:31:34.491Z,-6.13
2023-02-28T07:32:33.675Z,-6.07
2023-02-28T07:33:33.692Z,-6.04
2023-02-28T07:34:33.560Z,-5.97
2023-02-28T07:35:33.673Z,-5.99
2023-02-28T07:36:33.511Z,-5.86
2023-02-28T07:37:33.492Z,-5.8
2023-02-28T07:38:33.483Z,-5.74
2023-02-28T07:39:33.447Z,-5.69
2023-02-28T07:40:33.439Z,-5.65
2023-02-28T07:41:34.191Z,-5.63
2023-02-28T07:42:33.395Z,-5.58
2023-02-28T07:43:32.839Z,-5.5
2023-02-28T07:44:33.086Z,-5.47
2023-02-28T07:45:33.058Z,-5.45
2023-02-28T07:46:36.087Z,-5.4
2023-02-28T07:47:33.013Z,-5.3
2023-02-28T07:48:33.250Z,-5.23
2023-02-28T07:49:33.299Z,-5.19
2023-02-28T07:50:33.238Z,-5.08
2023-02-28T07:51:33.793Z,-5.02
2023-02-28T07:52:33.159Z,-4.98
2023-02-28T07:53:33.145Z,-4.84
2023-02-28T07:54:33.122Z,-4.83
2023-02-28T07:55:32.614Z,-4.9
2023-02-28T07:56:33.690Z,-4.84
2023-02-28T07:57:33.046Z,-4.75
2023-02-28T07:58:33.025Z,-4.72
2023-02-28T07:59:34.916Z,-4.62
2023-02-28T08:00:32.964Z,-4.63
2023-02-28T08:01:34.098Z,-4.61
2023-02-28T08:02:32.941Z,-4.5
2023-02-28T08:03:32.916Z,-4.43
2023-02-28T08:04:32.737Z,-4.41
2023-02-28T08:05:32.953Z,-4.33
2023-02-28T08:06:32.844Z,-4.27
2023-02-28T08:07:32.590Z,-4.14
2023-02-28T08:08:32.572Z,-4.16
2023-02-28T08:09:32.526Z,-4.15
2023-02-28T08:10:32.784Z,-4.08
2023-02-28T08:11:33.519Z,-4.05
2023-02-28T08:12:32.565Z,-3.91
2023-02-28T08:13:32.719Z,-3.82
2023-02-28T08:14:32.669Z,-3.83
2023-02-28T08:15:32.655Z,-3.71
2023-02-28T08:16:32.799Z,-3.69
2023-02-28T08:17:35.069Z,-3.57
2023-02-28T08:18:32.593Z,-3.54
2023-02-28T08:19:32.312Z,-3.51
2023-02-28T08:20:32.539Z,-3.39
2023-02-28T08:21:33.589Z,-3.39
2023-02-28T08:22:32.493Z,-3.38
2023-02-28T08:23:32.475Z,-3.29
2023-02-28T08:24:32.191Z,-3.25
2023-02-28T08:25:32.426Z,-3.21
2023-02-28T08:26:32.457Z,-3.03
2023-02-28T08:27:32.394Z,-3
2023-02-28T08:28:32.378Z,-3.11
2023-02-28T08:29:32.343Z,-2.99
2023-02-28T08:30:31.833Z,-2.85
2023-02-28T08:31:33.325Z,-2.82
2023-02-28T08:32:35.321Z,-2.81
2023-02-28T08:33:31.996Z,-2.72
2023-02-28T08:34:31.721Z,-2.67
2023-02-28T08:35:32.035Z,-2.65
2023-02-28T08:36:32.497Z,-2.62
2023-02-28T08:37:32.316Z,-2.5
2023-02-28T08:38:32.149Z,-2.47
2023-02-28T08:39:31.866Z,-2.5
2023-02-28T08:40:31.898Z,-2.32
2023-02-28T08:41:32.815Z,-2.36
2023-02-28T08:42:32.058Z,-2.39
2023-02-28T08:43:32.070Z,-2.36
2023-02-28T08:44:32.019Z,-2.32
2023-02-28T08:45:32.247Z,-2.34
2023-02-28T08:46:32.014Z,-2.4
2023-02-28T08:47:31.973Z,-2.27
2023-02-28T08:48:31.966Z,-2.25
2023-02-28T08:49:31.909Z,-2.23
2023-02-28T08:50:31.916Z,-2.18
2023-02-28T08:51:32.941Z,-2.09
2023-02-28T08:52:31.592Z,-2.12
2023-02-28T08:53:31.947Z,-2.1
2023-02-28T08:54:31.812Z,-1.99
2023-02-28T08:55:31.817Z,-2
2023-02-28T08:56:32.101Z,-1.99
2023-02-28T08:57:31.825Z,-1.97
2023-02-28T08:58:31.554Z,-1.97
2023-02-28T08:59:31.768Z,-1.99
2023-02-28T09:00:32.013Z,-1.92
2023-02-28T09:01:33.314Z,-1.85
2023-02-28T09:02:31.730Z,-1.85
2023-02-28T09:03:32.123Z,-1.81
2023-02-28T09:04:31.987Z,-1.73
2023-02-28T09:05:31.642Z,-1.74
2023-02-28T09:06:32.973Z,-1.67
2023-02-28T09:07:31.596Z,-1.61
2023-02-28T09:08:31.607Z,-1.56
2023-02-28T09:09:31.889Z,-1.52
2023-02-28T09:10:31.806Z,-1.53
2023-02-28T09:11:31.521Z,-1.34
2023-02-28T09:12:31.250Z,-1.37
2023-02-28T09:13:31.477Z,-1.28
2023-02-28T09:14:31.711Z,-1.19
2023-02-28T09:15:31.689Z,-1.11
2023-02-28T09:16:31.581Z,-1.1
2023-02-28T09:17:35.913Z,-0.98
2023-02-28T09:18:31.378Z,-0.84
2023-02-28T09:19:31.612Z,-0.76
2023-02-28T09:20:31.600Z,-0.64
2023-02-28T09:21:32.644Z,-0.54
2023-02-28T09:22:31.570Z,-0.38
2023-02-28T09:23:31.285Z,-0.2
2023-02-28T09:24:31.785Z,-0.13
2023-02-28T09:25:31.572Z,-0.05
2023-02-28T09:26:43.384Z,0.01
2023-02-28T09:27:31.195Z,0.1
2023-02-28T09:28:31.423Z,0.1
2023-02-28T09:29:31.176Z,0.21
2023-02-28T09:30:31.529Z,0.26
2023-02-28T09:31:31.127Z,0.44
2023-02-28T09:32:31.501Z,0.42
2023-02-28T09:33:31.316Z,0.45
2023-02-28T09:34:31.545Z,0.5
2023-02-28T09:35:30.802Z,0.53
2023-02-28T09:36:48.661Z,0.5
2023-02-28T09:37:31.244Z,0.48
2023-02-28T09:38:31.296Z,0.5
2023-02-28T09:39:31.209Z,0.57
2023-02-28T09:40:30.917Z,0.52
2023-02-28T09:41:31.306Z,0.5
2023-02-28T09:42:31.153Z,0.57
2023-02-28T09:43:30.875Z,0.47
2023-02-28T09:44:31.108Z,0.64
2023-02-28T09:45:31.080Z,0.71
2023-02-28T09:46:31.361Z,0.86
2023-02-28T09:47:31.076Z,0.66
2023-02-28T09:48:31.020Z,0.52
2023-02-28T09:49:30.995Z,0.61
2023-02-28T09:50:30.981Z,0.63
2023-02-28T09:51:31.726Z,0.76
2023-02-28T09:52:30.941Z,0.76
2023-02-28T09:53:30.670Z,0.81
2023-02-28T09:54:30.915Z,0.86
2023-02-28T09:55:41.337Z,0.69
2023-02-28T09:56:31.587Z,0.78
2023-02-28T09:57:30.919Z,0.76
2023-02-28T09:58:30.838Z,0.64
2023-02-28T09:59:30.553Z,0.6
2023-02-28T10:00:30.556Z,0.53
2023-02-28T10:01:31.762Z,0.45
2023-02-28T10:02:30.752Z,0.24
2023-02-28T10:03:30.770Z,0.17
2023-02-28T10:04:30.371Z,0.21
2023-02-28T10:05:30.452Z,0.1
2023-02-28T10:06:30.155Z,0.17
2023-02-28T10:07:30.655Z,0.2
2023-02-28T10:08:30.679Z,0.23
2023-02-28T10:09:30.634Z,0.35
2023-02-28T10:10:30.344Z,0.44
2023-02-28T10:11:31.198Z,0.52
2023-02-28T10:12:30.569Z,0.82
2023-02-28T10:13:30.599Z,1.04
2023-02-28T10:14:30.275Z,1.03
2023-02-28T10:15:30.691Z,1.39
2023-02-28T10:16:31.160Z,1.69
2023-02-28T10:17:30.479Z,2.06
2023-02-28T10:18:30.210Z,2.51
2023-02-28T10:19:29.920Z,2.62
2023-02-28T10:20:30.168Z,2.81
2023-02-28T10:21:30.403Z,3.05
2023-02-28T10:22:30.414Z,3.23
2023-02-28T10:23:30.350Z,3.37
2023-02-28T10:24:30.336Z,3.53
2023-02-28T10:25:30.354Z,3.57
2023-02-28T10:26:30.870Z,3.76
2023-02-28T10:27:30.039Z,4.04
2023-02-28T10:28:30.518Z,4.2
2023-02-28T10:29:30.565Z,4.26
2023-02-28T10:30:30.481Z,4.26
2023-02-28T10:31:31.299Z,4.28
2023-02-28T10:32:30.363Z,4.26
2023-02-28T10:33:30.096Z,4.32
2023-02-28T10:34:30.135Z,4.42
2023-02-28T10:35:30.115Z,4.6
2023-02-28T10:36:31.043Z,4.68
2023-02-28T10:37:30.334Z,4.76
2023-02-28T10:38:30.072Z,4.83
2023-02-28T10:39:30.301Z,4.83
2023-02-28T10:40:30.291Z,4.75
2023-02-28T10:41:30.270Z,4.66
2023-02-28T10:42:30.076Z,4.44
2023-02-28T10:43:30.004Z,4.36
2023-02-28T10:44:29.955Z,4.2
2023-02-28T10:45:30.284Z,3.97
2023-02-28T10:46:31.035Z,3.86
2023-02-28T10:47:30.170Z,3.66
2023-02-28T10:48:30.153Z,3.57
2023-02-28T10:49:29.885Z,3.39
2023-02-28T10:50:29.860Z,3.4
2023-02-28T10:51:29.839Z,3.3
2023-02-28T10:52:29.816Z,3.29
2023-02-28T10:53:29.834Z,3.29
2023-02-28T10:54:29.872Z,3.09
2023-02-28T10:55:30.018Z,2.73
2023-02-28T10:56:30.155Z,2.44
2023-02-28T10:57:29.749Z,2.31
2023-02-28T10:58:29.793Z,2.09
2023-02-28T10:59:29.705Z,1.98
2023-02-28T11:00:29.942Z,1.84
2023-02-28T11:01:30.506Z,1.92
2023-02-28T11:02:29.649Z,1.87
2023-02-28T11:03:29.902Z,1.9
2023-02-28T11:04:29.730Z,1.87
2023-02-28T11:05:29.619Z,1.72
2023-02-28T11:06:30.048Z,1.57
2023-02-28T11:07:52.825Z,1.56
2023-02-28T11:08:29.539Z,1.53
2023-02-28T11:09:29.819Z,1.78
2023-02-28T11:10:29.820Z,1.97
2023-02-28T11:11:31.017Z,2.11
2023-02-28T11:12:29.612Z,2.24
2023-02-28T11:13:29.434Z,2.27
2023-02-28T11:14:29.684Z,2.3
2023-02-28T11:15:29.659Z,2.4
2023-02-28T11:16:29.673Z,2.3
2023-02-28T11:17:29.722Z,2.36
2023-02-28T11:18:29.625Z,2.36
2023-02-28T11:19:29.345Z,2.29
2023-02-28T11:20:29.635Z,2.3
2023-02-28T11:21:29.890Z,2.34
2023-02-28T11:22:29.645Z,2.16
2023-02-28T11:23:29.537Z,2.2
2023-02-28T11:24:29.493Z,2.16
2023-02-28T11:25:29.498Z,2.2
2023-02-28T11:26:29.204Z,2.34
2023-02-28T11:27:29.423Z,2.52
2023-02-28T11:28:29.168Z,2.51
2023-02-28T11:29:29.210Z,2.48
2023-02-28T11:30:29.483Z,2.33
2023-02-28T11:31:29.758Z,2.16
2023-02-28T11:32:29.429Z,2.09
2023-02-28T11:33:29.388Z,2.09
2023-02-28T11:34:29.056Z,2.18
2023-02-28T11:35:29.282Z,2.27
2023-02-28T11:36:29.273Z,2.38
2023-02-28T11:37:29.009Z,2.6
2023-02-28T11:38:28.972Z,2.8
2023-02-28T11:39:29.212Z,2.99
2023-02-28T11:40:28.934Z,3.2
2023-02-28T11:41:29.434Z,3.26
2023-02-28T11:42:28.884Z,3.4
2023-02-28T11:43:28.868Z,3.46
2023-02-28T11:44:29.108Z,3.45
2023-02-28T11:45:28.950Z,3.46
2023-02-28T11:46:29.188Z,3.48
2023-02-28T11:47:28.792Z,3.42
2023-02-28T11:48:29.098Z,3.46
2023-02-28T11:49:29.096Z,3.34
2023-02-28T11:50:28.501Z,3.3
2023-02-28T11:51:28.910Z,3.23
2023-02-28T11:52:28.971Z,3.19
2023-02-28T11:53:29.853Z,3.02
2023-02-28T11:54:28.926Z,2.87
2023-02-28T11:55:28.931Z,2.78
2023-02-28T11:56:28.912Z,2.73
2023-02-28T11:57:28.889Z,2.76
2023-02-28T11:58:28.867Z,2.83
2023-02-28T11:59:28.833Z,2.83
2023-02-28T12:00:28.821Z,2.73
2023-02-28T12:01:29.082Z,2.85
2023-02-28T12:02:28.864Z,2.8
2023-02-28T12:03:28.944Z,2.63
2023-02-28T12:04:28.746Z,2.65
2023-02-28T12:05:28.851Z,2.44
2023-02-28T12:06:28.470Z,2.62
2023-02-28T12:07:28.452Z,2.69
2023-02-28T12:08:28.672Z,2.65
2023-02-28T12:09:28.403Z,2.54
2023-02-28T12:10:28.650Z,2.54
2023-02-28T12:11:28.903Z,2.55
2023-02-28T12:12:30.201Z,2.52
2023-02-28T12:13:28.593Z,2.52
2023-02-28T12:14:28.565Z,2.52
2023-02-28T12:15:28.582Z,2.54
2023-02-28T12:16:28.678Z,2.54
2023-02-28T12:17:28.263Z,2.62
2023-02-28T12:18:28.573Z,2.65
2023-02-28T12:19:27.962Z,2.59
2023-02-28T12:20:28.217Z,2.58
2023-02-28T12:21:28.890Z,2.33
2023-02-28T12:22:28.419Z,2.34
2023-02-28T12:23:28.190Z,2.15
2023-02-28T12:24:28.435Z,2.16
2023-02-28T12:25:28.113Z,2.15
2023-02-28T12:26:28.144Z,2.09
2023-02-28T12:27:30.496Z,2.08
2023-02-28T12:28:27.795Z,1.94
2023-02-28T12:29:28.331Z,2.05
2023-02-28T12:30:28.057Z,2.09
2023-02-28T12:31:28.537Z,2.15
2023-02-28T12:32:28.513Z,2.15
2023-02-28T12:33:28.452Z,2.15
2023-02-28T12:34:27.965Z,2.12
2023-02-28T12:35:28.183Z,2.18
2023-02-28T12:36:27.905Z,2.13
2023-02-28T12:37:28.263Z,2.22
2023-02-28T12:38:28.284Z,2.18
2023-02-28T12:39:30.073Z,2.08
2023-02-28T12:40:27.819Z,2.13
2023-02-28T12:41:28.321Z,2.16
2023-02-28T12:42:27.780Z,2.16
2023-02-28T12:43:28.043Z,2.13
2023-02-28T12:44:27.770Z,2.13
2023-02-28T12:45:28.162Z,2.16
2023-02-28T12:46:28.375Z,2.12
2023-02-28T12:47:28.003Z,2.05
2023-02-28T12:48:27.706Z,2.11
2023-02-28T12:49:27.913Z,2.02
2023-02-28T12:50:27.894Z,2.15
2023-02-28T12:51:28.353Z,2.13
2023-02-28T12:52:27.591Z,2.29
2023-02-28T12:53:27.913Z,2.31
2023-02-28T12:54:27.820Z,2.2
2023-02-28T12:55:27.557Z,2.18
2023-02-28T12:56:28.410Z,2.05
2023-02-28T12:57:27.247Z,2.11
2023-02-28T12:58:27.748Z,2.01
2023-02-28T12:59:27.486Z,1.84
2023-02-28T13:00:27.694Z,1.84
2023-02-28T13:01:28.113Z,1.83
2023-02-28T13:02:27.601Z,1.86
2023-02-28T13:03:27.437Z,1.79
2023-02-28T13:04:27.403Z,1.72
2023-02-28T13:05:27.624Z,1.71
2023-02-28T13:06:27.339Z,1.71
2023-02-28T13:07:27.568Z,1.72
2023-02-28T13:08:27.550Z,1.66
2023-02-28T13:09:27.604Z,1.66
2023-02-28T13:10:27.531Z,1.64
2023-02-28T13:11:27.491Z,1.64
2023-02-28T13:12:27.471Z,1.58
2023-02-28T13:13:27.493Z,1.65
2023-02-28T13:14:27.433Z,1.65
2023-02-28T13:15:27.155Z,1.68
2023-02-28T13:16:26.984Z,1.61
2023-02-28T13:17:27.122Z,1.61
2023-02-28T13:18:27.377Z,1.57
2023-02-28T13:19:27.080Z,1.54
2023-02-28T13:20:27.896Z,1.46